Time;durP1;ratioP1;P1;durP2;ratioP2;P2;SDS_P1;SDS_P2;PMS_P1;PMS_P2;Temp;Humidity;BMP_temperature;BMP_pressure;BME280_temperature;BME280_humidity;BME280_pressure;Samples;Min_cycle;Max_cycle;Signal;HPM_P1;HPM_P2
2023/08/30 00:01:47;;;;;;;2.20;1.20;;;13.80;99.90;;;;;;5054645;28;20433;-90
2023/08/30 00:04:14;;;;;;;2.20;1.00;;;13.80;99.90;;;;;;5054878;28;20441;-90
2023/08/30 00:06:41;;;;;;;2.27;0.93;;;13.80;99.90;;;;;;5054620;28;20941;-89
2023/08/30 00:09:08;;;;;;;2.20;1.20;;;13.80;99.90;;;;;;5054273;28;20796;-89
2023/08/30 00:11:35;;;;;;;3.07;1.13;;;13.80;99.90;;;;;;5054287;28;20525;-82
2023/08/30 00:14:06;;;;;;;2.20;1.20;;;13.80;99.90;;;;;;5054294;28;20509;-89
2023/08/30 00:16:35;;;;;;;2.30;1.10;;;13.70;99.90;;;;;;5054743;28;20441;-90
2023/08/30 00:19:02;;;;;;;2.80;1.43;;;13.70;99.90;;;;;;5054593;28;20481;-90
2023/08/30 00:21:29;;;;;;;2.40;0.83;;;13.60;99.90;;;;;;5054676;28;20429;-90
2023/08/30 00:23:56;;;;;;;1.97;0.93;;;13.60;99.90;;;;;;5054198;28;20476;-90
2023/08/30 00:26:22;;;;;;;2.10;0.97;;;13.60;99.90;;;;;;5054935;28;20486;-90
2023/08/30 00:28:49;;;;;;;2.53;1.20;;;13.60;99.90;;;;;;5054637;28;20499;-90
2023/08/30 00:31:16;;;;;;;2.00;1.00;;;13.60;99.90;;;;;;5054382;28;20513;-90
2023/08/30 00:33:45;;;;;;;4.00;1.10;;;13.60;99.90;;;;;;5053853;28;20448;-89
2023/08/30 00:36:12;;;;;;;2.67;1.13;;;13.50;99.90;;;;;;5054034;28;20443;-89
2023/08/30 00:38:39;;;;;;;2.20;0.97;;;13.50;99.90;;;;;;5057594;28;20482;-90
2023/08/30 00:41:06;;;;;;;2.83;1.40;;;13.60;99.90;;;;;;5074169;28;20454;-90
2023/08/30 00:43:33;;;;;;;2.20;1.00;;;13.60;99.90;;;;;;5074166;28;20437;-90
2023/08/30 00:46:00;;;;;;;3.03;1.13;;;13.60;99.90;;;;;;5074082;28;20843;-89
2023/08/30 00:48:28;;;;;;;2.40;1.00;;;13.60;99.90;;;;;;5074010;28;20439;-90
2023/08/30 00:50:57;;;;;;;2.70;1.07;;;13.60;99.90;;;;;;5073713;28;20523;-90
2023/08/30 00:53:24;;;;;;;2.73;1.37;;;13.60;99.90;;;;;;5073524;28;20429;-89
2023/08/30 00:55:51;;;;;;;3.60;1.30;;;13.60;99.90;;;;;;5073541;28;20482;-90
2023/08/30 00:58:18;;;;;;;2.13;0.87;;;13.60;99.90;;;;;;5073382;28;21050;-90
2023/08/30 01:00:47;;;;;;;2.67;1.67;;;13.50;99.90;;;;;;5073886;28;20434;-89
2023/08/30 01:03:14;;;;;;;4.70;2.87;;;13.60;99.90;;;;;;5073816;28;20442;-90
2023/08/30 01:05:41;;;;;;;5.77;2.17;;;13.60;99.90;;;;;;5073300;28;20454;-89
2023/08/30 01:08:11;;;;;;;3.83;2.10;;;13.60;99.90;;;;;;5073807;28;20485;-89
2023/08/30 01:10:48;;;;;;;4.00;1.90;;;13.50;99.90;;;;;;5073336;28;20775;-90
2023/08/30 01:13:20;;;;;;;4.20;2.40;;;13.50;99.90;;;;;;5073320;28;20455;-92
2023/08/30 01:15:48;;;;;;;3.30;1.43;;;13.50;99.90;;;;;;5073652;28;20487;-90
2023/08/30 01:18:20;;;;;;;3.90;2.13;;;13.50;99.90;;;;;;5073616;28;20836;-90
2023/08/30 01:20:48;;;;;;;4.30;2.40;;;13.50;99.90;;;;;;5073604;28;20425;-88
2023/08/30 01:23:27;;;;;;;3.83;1.27;;;13.50;99.90;;;;;;5071869;28;20436;-90
2023/08/30 01:26:01;;;;;;;2.30;0.93;;;13.50;99.90;;;;;;5073128;28;20911;-91
2023/08/30 01:28:32;;;;;;;3.90;1.30;;;13.50;99.90;;;;;;5073531;28;20429;-89
2023/08/30 01:31:00;;;;;;;2.27;0.83;;;13.50;99.90;;;;;;5073198;28;20417;-91
2023/08/30 01:33:28;;;;;;;2.27;1.10;;;13.50;99.90;;;;;;5073472;28;20861;-90
2023/08/30 01:36:01;;;;;;;1.90;0.90;;;13.40;99.90;;;;;;5073294;28;20529;-91
2023/08/30 01:38:29;;;;;;;4.63;1.13;;;13.40;99.90;;;;;;5071468;28;20942;-90
2023/08/30 01:40:58;;;;;;;2.13;1.00;;;13.30;99.90;;;;;;5064031;28;20496;-89
2023/08/30 01:43:28;;;;;;;2.60;1.17;;;13.40;99.90;;;;;;5053314;28;20443;-90
2023/08/30 01:45:58;;;;;;;2.00;1.10;;;13.30;99.90;;;;;;5053156;28;20531;-90
2023/08/30 01:48:26;;;;;;;2.10;0.90;;;13.30;99.90;;;;;;5053211;28;20486;-91
2023/08/30 01:50:54;;;;;;;2.50;1.20;;;13.30;99.90;;;;;;5053001;28;20462;-91
2023/08/30 01:53:22;;;;;;;5.00;1.00;;;13.30;99.90;;;;;;5053010;28;20503;-91
2023/08/30 01:55:50;;;;;;;3.13;1.00;;;13.30;99.90;;;;;;5053194;28;20526;-90
2023/08/30 01:58:16;;;;;;;2.10;0.90;;;13.30;99.90;;;;;;5053201;28;20606;-90
2023/08/30 02:00:43;;;;;;;2.20;1.10;;;13.20;99.90;;;;;;5052647;28;20946;-90
2023/08/30 02:03:13;;;;;;;2.80;1.40;;;13.20;99.90;;;;;;5063526;28;20435;-82
2023/08/30 02:05:50;;;;;;;3.10;1.20;;;13.20;99.90;;;;;;5072791;28;20506;-91
2023/08/30 02:08:18;;;;;;;2.40;1.10;;;13.20;99.90;;;;;;5073174;28;20453;-90
2023/08/30 02:10:53;;;;;;;2.43;1.10;;;13.30;99.90;;;;;;5076679;28;20435;-91
2023/08/30 02:13:26;;;;;;;2.87;0.93;;;13.30;99.90;;;;;;5076512;28;20447;-90
2023/08/30 02:15:56;;;;;;;4.00;1.50;;;13.30;99.90;;;;;;5076629;28;20500;-91
2023/08/30 02:18:25;;;;;;;2.73;1.60;;;13.30;99.90;;;;;;5076684;28;20519;-89
2023/08/30 02:20:52;;;;;;;2.57;1.40;;;13.30;99.90;;;;;;5076884;28;20432;-90
2023/08/30 02:23:19;;;;;;;2.50;1.50;;;13.30;99.90;;;;;;5076625;28;20435;-90
2023/08/30 02:25:45;;;;;;;2.30;1.30;;;13.40;99.90;;;;;;5076905;28;20509;-90
2023/08/30 02:28:12;;;;;;;3.00;1.30;;;13.40;99.90;;;;;;5076007;28;20456;-89
2023/08/30 02:30:39;;;;;;;3.80;1.37;;;13.40;99.90;;;;;;5071500;28;20483;-91
2023/08/30 02:33:11;;;;;;;2.60;1.20;;;13.40;99.90;;;;;;5055783;28;20978;-91
2023/08/30 02:35:40;;;;;;;3.20;1.83;;;13.40;99.90;;;;;;5056653;28;20533;-90
2023/08/30 02:38:07;;;;;;;3.17;1.33;;;13.40;99.90;;;;;;5056498;28;20507;-88
2023/08/30 02:40:34;;;;;;;3.90;1.40;;;13.40;99.90;;;;;;5056310;28;20437;-90
2023/08/30 02:43:01;;;;;;;4.57;1.60;;;13.40;99.90;;;;;;5056160;28;20444;-90
2023/08/30 02:45:28;;;;;;;2.30;1.20;;;13.40;99.90;;;;;;5056108;28;20451;-91
2023/08/30 02:47:57;;;;;;;2.90;1.50;;;13.30;99.90;;;;;;5056365;28;20435;-91
2023/08/30 02:50:24;;;;;;;2.97;1.43;;;13.30;99.90;;;;;;5056326;28;20487;-91
2023/08/30 02:52:53;;;;;;;3.63;1.50;;;13.40;99.90;;;;;;5055970;28;20438;-90
2023/08/30 02:55:20;;;;;;;6.43;2.03;;;13.40;99.90;;;;;;5055880;28;20526;-89
2023/08/30 02:57:47;;;;;;;3.97;2.07;;;13.40;99.90;;;;;;5055969;28;20468;-90
2023/08/30 03:00:15;;;;;;;3.57;1.80;;;13.40;99.90;;;;;;5056110;28;20518;-91
2023/08/30 03:02:42;;;;;;;4.50;2.50;;;13.40;99.90;;;;;;5056283;28;20436;-89
2023/08/30 03:05:11;;;;;;;5.77;2.73;;;13.40;99.90;;;;;;5055754;28;20966;-90
2023/08/30 03:07:38;;;;;;;4.50;2.03;;;13.40;99.90;;;;;;5056027;28;20523;-89
2023/08/30 03:10:08;;;;;;;3.60;1.90;;;13.40;99.90;;;;;;5055957;28;20764;-89
2023/08/30 03:12:35;;;;;;;3.93;1.90;;;13.40;99.90;;;;;;5055890;28;20439;-87
2023/08/30 03:15:04;;;;;;;3.27;1.80;;;13.40;99.90;;;;;;5055577;28;20472;-90
2023/08/30 03:17:30;;;;;;;2.53;1.30;;;13.40;99.90;;;;;;5055809;28;20529;-90
2023/08/30 03:19:57;;;;;;;3.60;1.47;;;13.40;99.90;;;;;;5055342;28;20432;-90
2023/08/30 03:22:24;;;;;;;2.30;1.17;;;13.40;99.90;;;;;;5054906;28;20433;-90
2023/08/30 03:24:52;;;;;;;2.40;1.10;;;13.40;99.90;;;;;;5055474;28;20974;-90
2023/08/30 03:27:22;;;;;;;2.90;1.70;;;13.50;99.90;;;;;;5055288;28;20491;-91
2023/08/30 03:29:49;;;;;;;3.00;1.50;;;13.40;99.90;;;;;;5055250;28;20436;-89
2023/08/30 03:32:18;;;;;;;3.73;3.27;;;13.40;99.90;;;;;;5055115;28;20448;-90
2023/08/30 03:34:45;;;;;;;7.80;3.77;;;13.30;99.90;;;;;;5055379;28;20459;-90
2023/08/30 03:37:13;;;;;;;4.17;3.37;;;13.30;99.90;;;;;;5055474;28;20438;-90
2023/08/30 03:39:40;;;;;;;3.80;2.80;;;13.30;99.90;;;;;;5055457;28;20459;-90
2023/08/30 03:42:07;;;;;;;4.70;3.00;;;13.20;99.90;;;;;;5055285;28;20433;-90
2023/08/30 03:44:35;;;;;;;3.77;2.80;;;13.20;99.90;;;;;;5055102;28;20451;-90
2023/08/30 03:47:02;;;;;;;3.67;2.50;;;13.20;99.90;;;;;;5054969;28;20429;-89
2023/08/30 03:49:30;;;;;;;2.80;2.03;;;13.20;99.90;;;;;;5055123;28;20495;-90
2023/08/30 03:51:57;;;;;;;2.70;1.60;;;13.20;99.90;;;;;;5055191;28;20520;-90
2023/08/30 03:54:24;;;;;;;2.57;1.33;;;13.20;99.90;;;;;;5055243;28;20437;-90
2023/08/30 03:56:51;;;;;;;2.40;1.73;;;13.20;99.90;;;;;;5054636;28;20472;-90
2023/08/30 03:59:18;;;;;;;2.80;1.57;;;13.20;99.90;;;;;;5055209;28;20465;-90
2023/08/30 04:01:47;;;;;;;2.90;1.63;;;13.20;99.90;;;;;;5054519;28;20441;-90
2023/08/30 04:04:14;;;;;;;3.10;1.73;;;13.20;99.90;;;;;;5054522;28;20528;-90
2023/08/30 04:06:41;;;;;;;4.03;2.33;;;13.20;99.90;;;;;;5054874;28;20444;-90
2023/08/30 04:09:10;;;;;;;3.40;2.47;;;13.20;99.90;;;;;;5054558;28;20993;-91
2023/08/30 04:11:39;;;;;;;3.60;2.77;;;13.20;99.90;;;;;;5054727;28;20517;-90
2023/08/30 04:14:09;;;;;;;3.73;1.87;;;13.20;99.90;;;;;;5054896;28;20433;-90
2023/08/30 04:16:36;;;;;;;4.60;2.40;;;13.20;99.90;;;;;;5054478;28;20571;-91
2023/08/30 04:19:04;;;;;;;4.00;2.13;;;13.20;99.90;;;;;;5054321;28;20448;-89
2023/08/30 04:21:31;;;;;;;3.03;2.40;;;13.20;99.90;;;;;;5054849;28;20491;-90
2023/08/30 04:23:58;;;;;;;3.03;1.70;;;13.20;99.90;;;;;;5054512;28;20472;-91
2023/08/30 04:26:25;;;;;;;3.73;2.30;;;13.20;99.90;;;;;;5054376;28;20985;-90
2023/08/30 04:28:52;;;;;;;3.73;2.60;;;13.20;99.90;;;;;;5054137;28;20993;-91
2023/08/30 04:31:19;;;;;;;4.03;2.80;;;13.20;99.90;;;;;;5054221;28;20435;-89
2023/08/30 04:33:46;;;;;;;4.20;2.60;;;13.20;99.90;;;;;;5054141;28;20440;-90
2023/08/30 04:36:14;;;;;;;3.57;2.60;;;13.20;99.90;;;;;;5054347;28;20503;-91
2023/08/30 04:38:41;;;;;;;4.03;3.20;;;13.20;99.90;;;;;;5054356;28;20447;-91
2023/08/30 04:41:08;;;;;;;6.07;3.27;;;13.20;99.90;;;;;;5054078;28;20571;-90
2023/08/30 04:43:35;;;;;;;3.43;2.60;;;13.10;99.90;;;;;;5053729;28;20490;-90
2023/08/30 04:46:02;;;;;;;4.60;2.37;;;13.10;99.90;;;;;;5054223;28;20445;-90
2023/08/30 04:48:29;;;;;;;5.30;2.33;;;13.10;99.90;;;;;;5054149;28;20507;-90
2023/08/30 04:51:00;;;;;;;7.70;3.10;;;13.10;99.90;;;;;;5053725;28;20437;-90
2023/08/30 04:53:29;;;;;;;4.37;2.90;;;13.20;99.90;;;;;;5053530;28;20432;-90
2023/08/30 04:55:56;;;;;;;5.23;2.40;;;13.20;99.90;;;;;;5053383;28;20931;-90
2023/08/30 04:58:23;;;;;;;4.30;2.60;;;13.30;99.90;;;;;;5055876;28;20480;-89
2023/08/30 05:00:56;;;;;;;4.10;2.13;;;13.30;99.90;;;;;;5061967;28;20991;-89
2023/08/30 05:03:22;;;;;;;6.53;2.17;;;13.30;99.90;;;;;;5073790;28;20470;-90
2023/08/30 05:05:49;;;;;;;4.33;2.13;;;13.30;99.90;;;;;;5073750;28;20509;-90
2023/08/30 05:08:16;;;;;;;4.53;2.40;;;13.40;99.90;;;;;;5071178;28;20926;-90
2023/08/30 05:10:46;;;;;;;4.10;2.10;;;13.40;99.90;;;;;;5073820;28;20448;-89
2023/08/30 05:13:15;;;;;;;3.20;2.03;;;13.40;99.90;;;;;;5073767;28;20425;-89
2023/08/30 05:15:42;;;;;;;4.10;2.03;;;13.40;99.90;;;;;;5073221;28;20470;-90
2023/08/30 05:18:09;;;;;;;3.20;1.70;;;13.50;99.90;;;;;;5073756;28;20757;-89
2023/08/30 05:20:36;;;;;;;8.87;2.03;;;13.50;99.90;;;;;;5073218;28;20434;-89
2023/08/30 05:23:03;;;;;;;2.87;1.50;;;13.60;99.90;;;;;;5072552;28;20946;-89
2023/08/30 05:25:30;;;;;;;2.57;1.60;;;13.60;99.90;;;;;;5073298;28;20432;-90
2023/08/30 05:27:59;;;;;;;5.20;1.83;;;13.60;99.90;;;;;;5061845;28;20938;-90
2023/08/30 05:30:26;;;;;;;3.87;1.93;;;13.60;99.90;;;;;;5053103;28;20799;-86
2023/08/30 05:32:53;;;;;;;3.00;2.20;;;13.60;99.90;;;;;;5052689;28;20441;-90
2023/08/30 05:35:20;;;;;;;4.13;1.50;;;13.60;99.90;;;;;;5052544;28;20490;-89
2023/08/30 05:37:47;;;;;;;3.10;1.90;;;13.60;99.90;;;;;;5053108;28;20546;-90
2023/08/30 05:40:16;;;;;;;4.40;2.00;;;13.60;99.90;;;;;;5053188;28;20778;-89
2023/08/30 05:42:45;;;;;;;2.80;1.57;;;13.60;99.90;;;;;;5052914;28;20445;-89
2023/08/30 05:45:13;;;;;;;3.70;1.80;;;13.60;99.90;;;;;;5049154;28;20485;-87
2023/08/30 05:47:40;;;;;;;2.50;1.60;;;13.70;99.90;;;;;;5052675;28;20853;-87
2023/08/30 05:50:08;;;;;;;3.20;1.73;;;13.70;99.90;;;;;;5060813;28;20501;-89
2023/08/30 05:52:35;;;;;;;4.17;2.20;;;13.60;99.90;;;;;;5073070;28;20709;-89
2023/08/30 05:55:02;;;;;;;3.13;1.87;;;13.60;99.90;;;;;;5070774;28;20466;-90
2023/08/30 05:57:33;;;;;;;3.27;1.97;;;13.60;99.90;;;;;;5070584;28;20476;-87
2023/08/30 06:00:00;;;;;;;6.87;2.07;;;13.50;99.90;;;;;;5036616;28;20529;-90
2023/08/30 06:02:29;;;;;;;3.70;2.77;;;13.50;99.90;;;;;;5052027;28;20910;-91
2023/08/30 06:04:56;;;;;;;3.37;2.17;;;13.50;99.90;;;;;;5048735;28;20445;-91
2023/08/30 06:07:23;;;;;;;5.67;3.17;;;13.50;99.90;;;;;;5051625;28;20479;-89
2023/08/30 06:09:50;;;;;;;3.70;2.93;;;13.50;99.90;;;;;;5051744;28;21275;-90
2023/08/30 06:12:17;;;;;;;2.97;1.80;;;13.50;99.90;;;;;;5052063;28;20460;-90
2023/08/30 06:14:49;;;;;;;5.20;2.27;;;13.50;99.90;;;;;;5051606;28;20444;-88
2023/08/30 06:17:17;;;;;;;3.13;1.83;;;13.60;99.90;;;;;;5052466;28;20473;-89
2023/08/30 06:19:46;;;;;;;4.97;2.40;;;13.60;99.90;;;;;;5051643;28;20457;-90
2023/08/30 06:22:13;;;;;;;3.43;1.70;;;13.60;99.90;;;;;;5051146;28;20444;-89
2023/08/30 06:24:40;;;;;;;3.33;1.93;;;13.60;99.90;;;;;;5051775;28;20457;-90
2023/08/30 06:27:07;;;;;;;2.50;1.50;;;13.70;99.90;;;;;;5050995;28;20445;-90
2023/08/30 06:29:34;;;;;;;3.00;1.80;;;13.70;99.90;;;;;;5051742;28;20452;-90
2023/08/30 06:32:00;;;;;;;2.83;1.83;;;13.70;99.90;;;;;;5067475;28;20992;-89
2023/08/30 06:34:27;;;;;;;2.90;2.00;;;13.70;99.90;;;;;;5052995;28;20445;-90
2023/08/30 06:36:56;;;;;;;5.63;1.90;;;13.70;99.90;;;;;;5064122;28;20470;-90
2023/08/30 06:39:23;;;;;;;3.47;1.80;;;13.70;99.90;;;;;;5051723;28;20937;-90
2023/08/30 06:41:50;;;;;;;3.00;1.83;;;13.80;99.90;;;;;;5050657;28;20444;-89
2023/08/30 06:44:18;;;;;;;3.70;2.17;;;13.90;99.90;;;;;;5053008;28;20953;-89
2023/08/30 06:46:45;;;;;;;5.17;2.33;;;14.00;99.90;;;;;;5050955;28;20476;-91
2023/08/30 06:49:12;;;;;;;3.97;2.23;;;14.00;99.90;;;;;;5051418;28;20441;-91
2023/08/30 06:51:39;;;;;;;2.93;2.07;;;14.00;99.90;;;;;;5054787;28;20487;-88
2023/08/30 06:54:07;;;;;;;3.00;1.87;;;14.10;99.90;;;;;;5070798;28;20437;-88
2023/08/30 06:56:34;;;;;;;2.80;2.03;;;14.10;99.90;;;;;;5056564;28;20967;-90
2023/08/30 06:59:01;;;;;;;5.87;2.47;;;14.10;99.90;;;;;;5055449;28;20866;-91
2023/08/30 07:01:29;;;;;;;3.30;1.90;;;14.10;99.90;;;;;;5056498;28;20433;-91
2023/08/30 07:03:56;;;;;;;3.33;2.00;;;14.20;99.90;;;;;;5055599;28;20451;-92
2023/08/30 07:06:23;;;;;;;3.27;1.80;;;14.20;99.90;;;;;;5055817;28;20499;-92
2023/08/30 07:08:51;;;;;;;2.83;2.10;;;14.20;99.90;;;;;;5055574;28;20439;-92
2023/08/30 07:11:19;;;;;;;3.53;2.07;;;14.20;99.90;;;;;;5056068;28;20788;-92
2023/08/30 07:13:46;;;;;;;3.07;1.57;;;14.30;99.90;;;;;;5055406;28;20429;-92
2023/08/30 07:16:13;;;;;;;3.73;2.00;;;14.30;99.90;;;;;;5055955;28;20472;-92
2023/08/30 07:18:40;;;;;;;4.13;2.40;;;14.30;99.90;;;;;;5055336;28;20434;-91
2023/08/30 07:21:07;;;;;;;3.13;1.90;;;14.30;99.90;;;;;;5055672;28;20444;-92
2023/08/30 07:23:34;;;;;;;3.50;2.30;;;14.40;99.90;;;;;;5055304;28;20459;-91
2023/08/30 07:26:03;;;;;;;3.70;2.33;;;14.50;99.90;;;;;;5055902;28;20433;-91
2023/08/30 07:28:32;;;;;;;2.70;1.63;;;14.50;99.90;;;;;;5055246;28;20487;-91
2023/08/30 07:31:04;;;;;;;2.70;1.90;;;14.60;99.90;;;;;;5055208;28;20780;-92
2023/08/30 07:33:31;;;;;;;3.43;1.97;;;14.60;99.90;;;;;;5054986;28;20422;-90
2023/08/30 07:35:58;;;;;;;4.13;2.40;;;14.70;99.90;;;;;;5055196;28;20437;-92
2023/08/30 07:38:25;;;;;;;3.07;1.67;;;14.80;99.90;;;;;;5055309;28;20437;-90
2023/08/30 07:40:55;;;;;;;3.00;1.97;;;15.00;99.90;;;;;;5055004;28;20434;-91
2023/08/30 07:43:22;;;;;;;4.00;2.07;;;15.10;99.90;;;;;;5055384;28;20437;-90
2023/08/30 07:45:50;;;;;;;2.47;1.20;;;15.30;99.90;;;;;;5055205;28;20434;-92
2023/08/30 07:48:17;;;;;;;2.93;1.70;;;15.40;99.30;;;;;;5055119;28;20436;-90
2023/08/30 07:50:44;;;;;;;3.90;1.60;;;15.40;98.90;;;;;;5054788;28;20449;-91
2023/08/30 07:53:11;;;;;;;2.87;1.77;;;15.40;98.60;;;;;;5055043;28;20430;-90
2023/08/30 07:55:38;;;;;;;2.27;1.40;;;15.40;98.50;;;;;;5054623;28;20915;-89
2023/08/30 07:58:05;;;;;;;4.50;2.03;;;15.40;98.80;;;;;;5054554;28;20546;-91
2023/08/30 08:00:32;;;;;;;3.23;1.27;;;15.30;99.00;;;;;;5054908;28;20461;-91
2023/08/30 08:03:01;;;;;;;2.77;1.93;;;15.30;99.30;;;;;;5054511;28;20436;-89
2023/08/30 08:05:28;;;;;;;2.60;1.50;;;15.40;99.90;;;;;;5054810;28;20437;-91
2023/08/30 08:07:55;;;;;;;3.17;1.60;;;15.50;99.70;;;;;;5053646;28;20449;-91
2023/08/30 08:10:22;;;;;;;3.43;1.57;;;15.60;99.80;;;;;;5054345;28;20931;-92
2023/08/30 08:12:49;;;;;;;2.77;1.70;;;15.60;99.40;;;;;;5054362;28;20521;-91
2023/08/30 08:15:16;;;;;;;3.00;1.50;;;15.80;99.10;;;;;;5054791;28;20494;-91
2023/08/30 08:17:43;;;;;;;2.87;1.47;;;15.90;99.00;;;;;;5054391;28;20526;-91
2023/08/30 08:20:13;;;;;;;3.10;1.60;;;16.10;97.70;;;;;;5054966;28;20444;-90
2023/08/30 08:22:40;;;;;;;3.17;1.40;;;16.40;98.00;;;;;;5054470;28;20418;-89
2023/08/30 08:25:09;;;;;;;3.40;1.53;;;16.80;97.60;;;;;;5054128;28;20495;-90
2023/08/30 08:27:37;;;;;;;3.77;1.43;;;17.10;95.80;;;;;;5054317;28;20449;-90
2023/08/30 08:30:05;;;;;;;4.47;1.30;;;17.30;95.70;;;;;;5054276;28;20441;-90
2023/08/30 08:32:33;;;;;;;2.90;1.30;;;17.70;95.20;;;;;;5054293;28;20797;-90
2023/08/30 08:35:00;;;;;;;3.70;1.40;;;18.00;92.70;;;;;;5053845;28;20429;-89
2023/08/30 08:37:28;;;;;;;2.90;1.30;;;18.40;93.40;;;;;;5054020;28;20562;-89
2023/08/30 08:39:55;;;;;;;2.93;1.40;;;19.10;92.90;;;;;;5054074;28;20441;-89
2023/08/30 08:42:28;;;;;;;2.87;1.57;;;19.60;90.90;;;;;;5054001;28;20429;-89
2023/08/30 08:44:57;;;;;;;2.63;1.10;;;20.50;90.90;;;;;;5054164;28;20457;-88
2023/08/30 08:47:25;;;;;;;6.40;1.50;;;21.80;90.00;;;;;;5053537;28;20518;-88
2023/08/30 08:49:52;;;;;;;3.10;1.70;;;22.70;80.90;;;;;;5053491;28;20457;-88
2023/08/30 08:52:20;;;;;;;2.47;1.23;;;23.00;75.80;;;;;;5053549;28;20498;-88
2023/08/30 08:54:48;;;;;;;3.60;1.70;;;23.30;74.30;;;;;;5053424;28;20842;-87
2023/08/30 08:57:15;;;;;;;2.53;1.00;;;23.50;69.50;;;;;;5053435;28;20546;-87
2023/08/30 08:59:43;;;;;;;2.60;1.50;;;23.50;69.30;;;;;;5053498;28;20426;-88
2023/08/30 09:02:13;;;;;;;4.90;1.60;;;23.40;68.20;;;;;;5053674;28;20799;-88
2023/08/30 09:04:40;;;;;;;3.17;1.33;;;23.30;69.80;;;;;;5053742;28;20448;-89
2023/08/30 09:07:14;;;;;;;2.60;1.40;;;23.20;66.00;;;;;;5053717;28;20503;-88
2023/08/30 09:09:41;;;;;;;3.60;1.50;;;23.30;65.10;;;;;;5053602;28;20444;-88
2023/08/30 09:12:10;;;;;;;2.90;1.50;;;23.60;65.30;;;;;;5053633;28;20438;-88
2023/08/30 09:14:37;;;;;;;3.37;1.80;;;24.40;61.30;;;;;;5053138;28;20434;-88
2023/08/30 09:17:04;;;;;;;2.90;1.20;;;24.90;61.00;;;;;;5053591;28;20513;-87
2023/08/30 09:19:31;;;;;;;4.37;1.43;;;25.30;60.50;;;;;;5053324;28;20461;-88
2023/08/30 09:22:00;;;;;;;2.73;1.70;;;25.40;55.20;;;;;;5052932;28;20449;-88
2023/08/30 09:24:38;;;;;;;2.70;1.30;;;25.50;56.90;;;;;;5053290;28;20783;-87
2023/08/30 09:27:09;;;;;;;3.40;1.30;;;25.80;58.00;;;;;;5052932;28;20439;-87
2023/08/30 09:29:36;;;;;;;5.10;1.80;;;26.30;56.80;;;;;;5053006;28;20833;-87
2023/08/30 09:32:05;;;;;;;2.83;1.57;;;27.10;54.80;;;;;;5053232;28;20840;-87
2023/08/30 09:34:32;;;;;;;3.00;1.40;;;27.50;49.80;;;;;;5052806;28;20441;-87
2023/08/30 09:37:02;;;;;;;4.07;1.80;;;27.90;49.80;;;;;;5052710;28;20476;-87
2023/08/30 09:39:29;;;;;;;3.20;1.70;;;29.30;49.10;;;;;;5053298;28;20436;-87
2023/08/30 09:41:57;;;;;;;2.73;1.30;;;30.10;46.10;;;;;;5053118;28;20513;-86
2023/08/30 09:44:31;;;;;;;2.73;1.10;;;29.90;43.30;;;;;;5053098;28;20438;-86
2023/08/30 09:46:58;;;;;;;3.90;1.40;;;29.40;42.60;;;;;;5053213;28;20760;-87
2023/08/30 09:49:27;;;;;;;3.07;1.70;;;29.10;43.50;;;;;;5052977;28;20521;-87
2023/08/30 09:52:08;;;;;;;2.63;1.20;;;29.00;46.00;;;;;;5053076;28;20443;-87
2023/08/30 09:54:38;;;;;;;5.73;1.67;;;28.70;44.80;;;;;;5052647;28;20425;-86
2023/08/30 09:57:09;;;;;;;2.90;1.10;;;28.80;45.30;;;;;;5053022;28;20845;-86
2023/08/30 09:59:41;;;;;;;3.33;1.50;;;28.60;44.40;;;;;;5053129;28;20459;-87
2023/08/30 10:02:14;;;;;;;2.30;1.23;;;28.10;44.40;;;;;;5053006;28;20425;-86
2023/08/30 10:04:41;;;;;;;2.37;1.20;;;27.60;45.50;;;;;;5053094;28;20426;-86
2023/08/30 10:07:09;;;;;;;3.50;1.40;;;27.10;46.80;;;;;;5052945;28;20495;-85
2023/08/30 10:09:39;;;;;;;2.90;1.10;;;26.90;46.80;;;;;;5052437;28;20433;-87
2023/08/30 10:12:08;;;;;;;2.57;0.80;;;26.70;47.90;;;;;;5052544;28;20477;-87
2023/08/30 10:14:42;;;;;;;3.30;1.27;;;26.50;47.10;;;;;;5052841;28;20495;-86
2023/08/30 10:17:12;;;;;;;3.33;1.40;;;26.30;48.40;;;;;;5052663;28;20468;-87
2023/08/30 10:19:41;;;;;;;4.17;1.37;;;26.20;46.70;;;;;;5052883;28;20464;-87
2023/08/30 10:22:12;;;;;;;2.30;1.20;;;26.30;48.50;;;;;;5052869;28;20437;-86
2023/08/30 10:24:47;;;;;;;6.70;1.30;;;26.50;46.90;;;;;;5052951;28;20753;-86
2023/08/30 10:27:16;;;;;;;4.53;1.30;;;26.70;46.70;;;;;;5052866;28;20818;-87
2023/08/30 10:29:47;;;;;;;2.43;1.13;;;27.00;46.40;;;;;;5052569;28;20441;-87
2023/08/30 10:32:20;;;;;;;2.20;1.00;;;27.30;45.40;;;;;;5056549;28;20495;-86
2023/08/30 10:34:49;;;;;;;3.10;1.73;;;27.70;44.10;;;;;;5056419;28;20418;-87
2023/08/30 10:37:17;;;;;;;2.93;1.10;;;27.90;44.30;;;;;;5056038;28;20530;-87
2023/08/30 10:39:49;;;;;;;2.60;1.23;;;27.80;43.70;;;;;;5056021;28;20470;-87
2023/08/30 10:42:16;;;;;;;3.13;1.50;;;27.30;41.60;;;;;;5056072;28;20420;-87
2023/08/30 10:44:52;;;;;;;2.30;1.00;;;26.90;42.60;;;;;;5055964;28;20486;-87
2023/08/30 10:47:25;;;;;;;2.83;1.10;;;26.60;44.80;;;;;;5055971;28;20942;-87
2023/08/30 10:49:54;;;;;;;2.53;1.23;;;26.50;45.50;;;;;;5056172;28;20437;-86
2023/08/30 10:52:21;;;;;;;2.50;1.00;;;26.50;46.40;;;;;;5053809;28;20776;-86
2023/08/30 10:54:50;;;;;;;3.50;1.07;;;26.40;45.50;;;;;;5055754;28;20430;-86
2023/08/30 10:57:20;;;;;;;2.23;1.00;;;26.20;46.00;;;;;;5055705;28;20519;-86
2023/08/30 11:00:08;;;;;;;2.40;1.20;;;26.10;45.10;;;;;;5056112;28;20413;-87
2023/08/30 11:02:36;;;;;;;3.00;0.97;;;26.00;45.80;;;;;;5056037;28;20845;-87
2023/08/30 11:05:04;;;;;;;3.23;1.37;;;25.90;46.00;;;;;;5055435;28;20909;-86
2023/08/30 11:07:31;;;;;;;2.57;1.00;;;26.00;45.50;;;;;;5055857;28;20441;-86
2023/08/30 11:09:58;;;;;;;3.10;1.20;;;26.10;46.50;;;;;;5055457;28;20900;-86
2023/08/30 11:12:25;;;;;;;4.40;1.30;;;26.10;46.50;;;;;;5055764;28;20445;-86
2023/08/30 11:14:53;;;;;;;3.70;1.20;;;26.30;45.90;;;;;;5055658;28;20595;-85
2023/08/30 11:17:22;;;;;;;3.37;1.07;;;26.40;46.10;;;;;;5069472;28;20543;-87
2023/08/30 11:19:52;;;;;;;2.47;1.27;;;26.80;48.10;;;;;;5062386;28;20522;-85
2023/08/30 11:22:20;;;;;;;4.10;1.17;;;26.80;46.60;;;;;;5054863;28;20469;-87
2023/08/30 11:24:48;;;;;;;2.20;1.30;;;26.60;44.90;;;;;;5054972;28;20519;-86
2023/08/30 11:27:17;;;;;;;3.33;1.33;;;26.60;46.60;;;;;;5054905;28;20528;-86
2023/08/30 11:29:45;;;;;;;3.07;1.47;;;27.10;44.60;;;;;;5055090;28;20433;-87
2023/08/30 11:32:12;;;;;;;5.00;0.87;;;27.00;42.20;;;;;;5054827;28;20437;-86
2023/08/30 11:34:40;;;;;;;2.23;1.03;;;27.00;43.10;;;;;;5062785;28;20449;-86
2023/08/30 11:37:09;;;;;;;3.10;1.20;;;26.80;42.50;;;;;;5075383;28;20454;-87
2023/08/30 11:39:36;;;;;;;2.77;1.10;;;26.30;43.90;;;;;;5075314;28;20475;-86
2023/08/30 11:42:06;;;;;;;2.43;1.10;;;25.90;43.90;;;;;;5073690;28;20934;-86
2023/08/30 11:44:33;;;;;;;2.77;0.97;;;25.40;43.70;;;;;;5074940;28;20471;-86
2023/08/30 11:47:00;;;;;;;2.80;1.40;;;25.00;45.40;;;;;;5074798;28;20472;-86
2023/08/30 11:49:30;;;;;;;2.87;1.10;;;24.70;46.40;;;;;;5074679;28;20440;-86
2023/08/30 11:51:59;;;;;;;2.30;1.00;;;24.30;46.70;;;;;;5075018;28;20474;-86
2023/08/30 11:54:27;;;;;;;3.60;1.60;;;23.90;47.90;;;;;;5075016;28;20440;-86
2023/08/30 11:56:54;;;;;;;3.17;2.03;;;23.70;48.20;;;;;;5074680;28;20931;-86
2023/08/30 11:59:22;;;;;;;2.50;1.50;;;23.50;49.10;;;;;;5075091;28;20900;-86
2023/08/30 12:01:49;;;;;;;2.60;1.30;;;23.30;49.30;;;;;;5075015;28;20513;-86
2023/08/30 12:04:18;;;;;;;5.27;1.40;;;23.20;48.80;;;;;;5074738;28;20578;-86
2023/08/30 12:06:53;;;;;;;2.40;1.10;;;23.20;50.40;;;;;;5074815;28;20490;-85
2023/08/30 12:09:22;;;;;;;3.03;1.10;;;23.40;52.50;;;;;;5074435;28;20424;-86
2023/08/30 12:11:50;;;;;;;2.07;0.93;;;23.70;52.20;;;;;;5074583;28;20515;-86
2023/08/30 12:14:17;;;;;;;2.20;1.07;;;24.10;51.10;;;;;;5074298;28;20918;-86
2023/08/30 12:16:46;;;;;;;2.17;1.07;;;24.60;49.20;;;;;;5073925;28;20433;-86
2023/08/30 12:19:15;;;;;;;2.17;1.20;;;24.90;48.10;;;;;;5074028;28;20482;-86
2023/08/30 12:21:43;;;;;;;4.30;1.10;;;25.20;49.20;;;;;;5074442;28;20429;-87
2023/08/30 12:24:10;;;;;;;2.83;1.20;;;25.50;46.50;;;;;;5074064;28;20440;-87
2023/08/30 12:26:39;;;;;;;2.50;1.30;;;25.70;46.70;;;;;;5074376;28;20432;-86
2023/08/30 12:29:06;;;;;;;2.30;1.17;;;26.00;48.00;;;;;;5074355;28;20444;-87
2023/08/30 12:31:33;;;;;;;2.60;1.00;;;26.20;46.70;;;;;;5074372;28;20436;-87
2023/08/30 12:34:00;;;;;;;3.70;1.23;;;26.10;46.00;;;;;;5074259;28;20509;-87
2023/08/30 12:36:27;;;;;;;2.10;0.93;;;26.10;45.00;;;;;;5074226;28;20822;-88
2023/08/30 12:38:54;;;;;;;3.30;1.00;;;25.90;45.30;;;;;;5074111;28;20471;-88
2023/08/30 12:41:23;;;;;;;2.37;1.13;;;25.90;45.60;;;;;;5073986;28;20432;-88
2023/08/30 12:43:56;;;;;;;2.77;1.20;;;25.90;47.50;;;;;;5073808;28;20479;-87
2023/08/30 12:46:23;;;;;;;2.93;1.27;;;25.90;44.50;;;;;;5074145;28;20440;-87
2023/08/30 12:48:50;;;;;;;4.03;1.20;;;25.80;45.10;;;;;;5073730;28;20918;-87
2023/08/30 12:51:17;;;;;;;2.07;1.00;;;25.60;43.30;;;;;;5073858;28;20521;-87
2023/08/30 12:53:44;;;;;;;2.97;1.13;;;25.50;45.80;;;;;;5073497;28;20433;-88